Ashmore, Illinois
Current Conditions -  °F | °C
As of 6:53 AM on Friday 24 Oct 2014 (Local Time) from KMTO Reporting Station
Few Clouds Few Clouds  
Wind Chill: 10°   Ceiling: Unl
Heat Index: 10°   Visibility: 10mi
Dew Point:   Wind: 6mph
Humidity: 80%   Direction: 180°S
Pressure: 30.08"   Gusts: NA
Location:  39.53°N, 88.02°W
Report Text: KMTO 241153Z AUTO 18005KT 10SM FEW026 10/07 A3008 RMK AO2 SLP188 T01000067 10117 20100 50004
Loading
Personal Weather Stations






























Interactive Weather Map
Tropical Storm Tracking
New forecast layout! Learn more

10-Day Weather Forecast

Advertisements
Track Severe Weather on mobile